GLD1287 SBPJ-SBSN
Flight info
| Callsign | GLD1287 |
|---|---|
| Flight time | 2h 0m |
| Altitude | 38000 |
| Route | DORS2A OPNUP ITALA RONUB ANRUS GELVU ATIDO SN362 I10Y |
| Aircraft | C25C/M-SDFGIRY/S |
Departure
| Time | 2026-04-24 12:53 |
|---|---|
| Airport | Brigadeiro Lysias Rodrigues Airport (SBPJ) |
Arrival
| Time | 2026-04-24 14:54 |
|---|---|
| Airport | Santarém - Maestro Wilson Fonseca International Airport (SBSN) |
| Time | Latitude | Longitude | Altitude | Speed | Heading |
|---|---|---|---|---|---|
| 2026-04-24 12:33 | -10.29216 | -48.36135 | 744 ft | 0 kts | 123° |
| 2026-04-24 12:43 | -10.29221 | -48.36125 | 744 ft | 4 kts | 122° |
| 2026-04-24 12:43 | -10.29249 | -48.36106 | 744 ft | 7 kts | 135° |
| 2026-04-24 12:44 | -10.29271 | -48.36059 | 743 ft | 6 kts | 65° |
| 2026-04-24 12:44 | -10.29227 | -48.36022 | 743 ft | 10 kts | 32° |
| 2026-04-24 12:44 | -10.29155 | -48.35976 | 744 ft | 14 kts | 33° |
| 2026-04-24 12:44 | -10.29108 | -48.35944 | 744 ft | 0 kts | 34° |
| 2026-04-24 12:49 | -10.29089 | -48.35931 | 743 ft | 7 kts | 34° |
| 2026-04-24 12:49 | -10.29030 | -48.35891 | 743 ft | 9 kts | 29° |
| 2026-04-24 12:49 | -10.29007 | -48.35907 | 741 ft | 8 kts | 302° |
| 2026-04-24 12:49 | -10.28967 | -48.35977 | 743 ft | 15 kts | 300° |
| 2026-04-24 12:50 | -10.28899 | -48.36086 | 743 ft | 21 kts | 302° |
| 2026-04-24 12:50 | -10.28812 | -48.36221 | 745 ft | 24 kts | 303° |
| 2026-04-24 12:50 | -10.28729 | -48.36350 | 746 ft | 17 kts | 302° |
| 2026-04-24 12:50 | -10.28667 | -48.36450 | 747 ft | 17 kts | 302° |
| 2026-04-24 12:51 | -10.28603 | -48.36553 | 746 ft | 18 kts | 303° |
| 2026-04-24 12:51 | -10.28568 | -48.36657 | 745 ft | 13 kts | 339° |
| 2026-04-24 12:51 | -10.28547 | -48.36630 | 746 ft | 0 kts | 117° |
| 2026-04-24 12:53 | -10.28643 | -48.36481 | 746 ft | 70 kts | 124° |
| 2026-04-24 12:53 | -10.29079 | -48.35822 | 908 ft | 141 kts | 125° |
| 2026-04-24 12:53 | -10.29717 | -48.34908 | 1467 ft | 175 kts | 127° |
| 2026-04-24 12:53 | -10.30552 | -48.33794 | 2318 ft | 206 kts | 121° |
| 2026-04-24 12:54 | -10.31194 | -48.32635 | 4285 ft | 175 kts | 116° |
| 2026-04-24 12:54 | -10.31806 | -48.31660 | 6094 ft | 152 kts | 120° |
| 2026-04-24 12:54 | -10.32364 | -48.30818 | 7512 ft | 139 kts | 120° |
| 2026-04-24 12:54 | -10.32923 | -48.29966 | 8285 ft | 149 kts | 120° |
| 2026-04-24 12:55 | -10.33500 | -48.29085 | 9137 ft | 151 kts | 121° |
| 2026-04-24 12:55 | -10.34083 | -48.28191 | 9998 ft | 153 kts | 121° |
| 2026-04-24 12:55 | -10.34653 | -48.27270 | 10776 ft | 155 kts | 109° |
| 2026-04-24 12:55 | -10.34824 | -48.26197 | 11526 ft | 156 kts | 88° |
| 2026-04-24 12:56 | -10.34559 | -48.25138 | 12296 ft | 158 kts | 63° |
| 2026-04-24 12:56 | -10.33870 | -48.24264 | 13056 ft | 162 kts | 38° |
| 2026-04-24 12:56 | -10.32845 | -48.23768 | 13820 ft | 167 kts | 13° |
| 2026-04-24 12:56 | -10.31667 | -48.23783 | 14496 ft | 173 kts | 354° |
| 2026-04-24 12:57 | -10.30471 | -48.23962 | 15163 ft | 175 kts | 355° |
| 2026-04-24 12:57 | -10.29263 | -48.24157 | 15842 ft | 177 kts | 354° |
| 2026-04-24 12:57 | -10.28042 | -48.24352 | 16522 ft | 179 kts | 354° |
| 2026-04-24 12:57 | -10.26804 | -48.24545 | 17202 ft | 181 kts | 354° |
| 2026-04-24 12:58 | -10.25553 | -48.24742 | 17879 ft | 183 kts | 354° |
| 2026-04-24 12:58 | -10.24282 | -48.24941 | 18520 ft | 186 kts | 354° |
| 2026-04-24 12:58 | -10.22993 | -48.25142 | 19082 ft | 189 kts | 354° |
| 2026-04-24 12:58 | -10.21687 | -48.25348 | 19660 ft | 191 kts | 355° |
| 2026-04-24 12:59 | -10.20363 | -48.25553 | 20218 ft | 194 kts | 355° |
| 2026-04-24 12:59 | -10.19023 | -48.25765 | 20793 ft | 196 kts | 355° |
| 2026-04-24 12:59 | -10.17666 | -48.25974 | 21375 ft | 198 kts | 356° |
| 2026-04-24 12:59 | -10.16295 | -48.26192 | 21955 ft | 201 kts | 357° |
| 2026-04-24 13:00 | -10.14905 | -48.26409 | 22524 ft | 203 kts | 357° |
| 2026-04-24 13:00 | -10.13498 | -48.26629 | 23102 ft | 206 kts | 357° |
| 2026-04-24 13:00 | -10.12077 | -48.26849 | 23663 ft | 208 kts | 358° |
| 2026-04-24 13:00 | -10.10633 | -48.27078 | 24161 ft | 211 kts | 358° |
| 2026-04-24 13:01 | -10.09200 | -48.27301 | 24698 ft | 212 kts | 356° |
| 2026-04-24 13:01 | -10.07859 | -48.27879 | 25234 ft | 224 kts | 325° |
| 2026-04-24 13:01 | -10.06691 | -48.28950 | 25728 ft | 227 kts | 323° |
| 2026-04-24 13:01 | -10.05534 | -48.30056 | 26231 ft | 230 kts | 321° |
| 2026-04-24 13:02 | -10.04375 | -48.31179 | 26741 ft | 231 kts | 322° |
| 2026-04-24 13:02 | -10.03205 | -48.32302 | 27251 ft | 232 kts | 322° |
| 2026-04-24 13:02 | -10.02022 | -48.33423 | 27747 ft | 234 kts | 322° |
| 2026-04-24 13:02 | -10.00832 | -48.34555 | 28235 ft | 236 kts | 322° |
| 2026-04-24 13:03 | -9.99636 | -48.35698 | 28776 ft | 236 kts | 322° |
| 2026-04-24 13:03 | -9.98460 | -48.36816 | 29324 ft | 235 kts | 322° |
| 2026-04-24 13:03 | -9.97249 | -48.37972 | 29896 ft | 234 kts | 322° |
| 2026-04-24 13:03 | -9.96062 | -48.39102 | 30384 ft | 234 kts | 322° |
| 2026-04-24 13:04 | -9.94881 | -48.40226 | 30864 ft | 232 kts | 322° |
| 2026-04-24 13:04 | -9.93710 | -48.41345 | 31321 ft | 231 kts | 321° |
| 2026-04-24 13:04 | -9.92544 | -48.42452 | 31773 ft | 229 kts | 321° |
| 2026-04-24 13:04 | -9.91389 | -48.43554 | 32318 ft | 227 kts | 321° |
| 2026-04-24 13:05 | -9.90236 | -48.44655 | 32884 ft | 228 kts | 320° |
| 2026-04-24 13:05 | -9.89054 | -48.45774 | 33259 ft | 237 kts | 320° |
| 2026-04-24 13:05 | -9.87837 | -48.46936 | 33658 ft | 244 kts | 320° |
| 2026-04-24 13:05 | -9.86581 | -48.48132 | 34062 ft | 251 kts | 319° |
| 2026-04-24 13:06 | -9.85290 | -48.49361 | 34426 ft | 258 kts | 319° |
| 2026-04-24 13:06 | -9.83968 | -48.50622 | 34796 ft | 264 kts | 319° |
| 2026-04-24 13:06 | -9.82614 | -48.51909 | 35172 ft | 270 kts | 319° |
| 2026-04-24 13:06 | -9.81232 | -48.53225 | 35551 ft | 275 kts | 319° |
| 2026-04-24 13:07 | -9.79844 | -48.54545 | 35928 ft | 280 kts | 319° |
| 2026-04-24 13:07 | -9.78410 | -48.55912 | 36320 ft | 285 kts | 319° |
| 2026-04-24 13:07 | -9.76951 | -48.57300 | 36712 ft | 290 kts | 318° |
| 2026-04-24 13:07 | -9.75477 | -48.58702 | 37109 ft | 294 kts | 318° |
| 2026-04-24 13:08 | -9.73968 | -48.60138 | 37512 ft | 298 kts | 318° |
| 2026-04-24 13:08 | -9.72478 | -48.61554 | 37903 ft | 301 kts | 317° |
| 2026-04-24 13:08 | -9.70921 | -48.63035 | 38023 ft | 314 kts | 318° |
| 2026-04-24 13:09 | -9.67748 | -48.66321 | 38054 ft | 344 kts | 308° |
| 2026-04-24 13:09 | -9.66252 | -48.68276 | 38052 ft | 358 kts | 309° |
| 2026-04-24 13:09 | -9.64679 | -48.70296 | 38051 ft | 371 kts | 309° |
| 2026-04-24 13:09 | -9.63057 | -48.72384 | 38048 ft | 383 kts | 309° |
| 2026-04-24 13:10 | -9.61402 | -48.74527 | 38048 ft | 394 kts | 309° |
| 2026-04-24 13:10 | -9.59684 | -48.76748 | 38045 ft | 404 kts | 309° |
| 2026-04-24 13:10 | -9.56155 | -48.81304 | 38044 ft | 416 kts | 309° |
| 2026-04-24 13:11 | -9.52546 | -48.85961 | 38045 ft | 424 kts | 309° |
| 2026-04-24 13:11 | -9.48911 | -48.90650 | 38043 ft | 431 kts | 309° |
| 2026-04-24 13:12 | -9.45186 | -48.95454 | 38037 ft | 426 kts | 309° |
| 2026-04-24 13:12 | -9.43383 | -48.97779 | 38034 ft | 415 kts | 309° |
| 2026-04-24 13:12 | -9.41622 | -49.00051 | 38029 ft | 405 kts | 309° |
| 2026-04-24 13:13 | -9.38211 | -49.04444 | 38017 ft | 389 kts | 309° |
| 2026-04-24 13:13 | -9.34926 | -49.08676 | 38012 ft | 376 kts | 309° |
| 2026-04-24 13:14 | -9.31840 | -49.12649 | 38009 ft | 366 kts | 309° |
| 2026-04-24 13:14 | -9.28771 | -49.16600 | 38009 ft | 358 kts | 309° |
| 2026-04-24 13:15 | -9.25728 | -49.20516 | 38011 ft | 351 kts | 309° |
| 2026-04-24 13:15 | -9.22739 | -49.24360 | 38013 ft | 344 kts | 309° |
| 2026-04-24 13:16 | -9.19815 | -49.28122 | 38015 ft | 339 kts | 309° |
| 2026-04-24 13:16 | -9.16923 | -49.31840 | 38011 ft | 335 kts | 309° |
| 2026-04-24 13:17 | -9.14048 | -49.35535 | 38010 ft | 331 kts | 309° |
| 2026-04-24 13:17 | -9.11210 | -49.39183 | 38007 ft | 328 kts | 309° |
| 2026-04-24 13:18 | -9.08397 | -49.42796 | 38006 ft | 326 kts | 310° |
| 2026-04-24 13:18 | -9.05639 | -49.46338 | 38007 ft | 323 kts | 310° |
| 2026-04-24 13:19 | -9.02900 | -49.49854 | 38008 ft | 321 kts | 310° |
| 2026-04-24 13:19 | -9.00135 | -49.53403 | 38008 ft | 320 kts | 310° |
| 2026-04-24 13:20 | -8.97380 | -49.56939 | 38004 ft | 319 kts | 310° |
| 2026-04-24 13:20 | -8.94639 | -49.60453 | 38008 ft | 318 kts | 310° |
| 2026-04-24 13:21 | -8.91906 | -49.63960 | 38007 ft | 317 kts | 310° |
| 2026-04-24 13:21 | -8.89184 | -49.67450 | 38009 ft | 316 kts | 310° |
| 2026-04-24 13:22 | -8.86467 | -49.70931 | 38005 ft | 315 kts | 310° |
| 2026-04-24 13:22 | -8.83756 | -49.74406 | 38004 ft | 314 kts | 310° |
| 2026-04-24 13:23 | -8.81068 | -49.77850 | 38002 ft | 314 kts | 309° |
| 2026-04-24 13:23 | -8.78363 | -49.81314 | 38004 ft | 314 kts | 310° |
| 2026-04-24 13:24 | -8.75662 | -49.84773 | 38006 ft | 313 kts | 310° |
| 2026-04-24 13:24 | -8.72965 | -49.88225 | 38004 ft | 313 kts | 310° |
| 2026-04-24 13:25 | -8.70267 | -49.91678 | 38007 ft | 313 kts | 310° |
| 2026-04-24 13:25 | -8.67570 | -49.95129 | 38003 ft | 314 kts | 310° |
| 2026-04-24 13:26 | -8.64939 | -49.98495 | 38003 ft | 314 kts | 310° |
| 2026-04-24 13:26 | -8.62233 | -50.01955 | 38004 ft | 313 kts | 310° |
| 2026-04-24 13:27 | -8.60918 | -50.03637 | 38000 ft | 313 kts | 310° |
| 2026-04-24 13:28 | -8.59502 | -50.05446 | 38004 ft | 313 kts | 310° |
| 2026-04-24 13:29 | -8.56806 | -50.08891 | 38007 ft | 312 kts | 310° |
| 2026-04-24 13:29 | -8.54112 | -50.12334 | 38003 ft | 312 kts | 310° |
| 2026-04-24 13:30 | -8.51434 | -50.15756 | 38005 ft | 312 kts | 310° |
| 2026-04-24 13:30 | -8.48765 | -50.19165 | 38003 ft | 311 kts | 310° |
| 2026-04-24 13:31 | -8.46115 | -50.22547 | 38003 ft | 311 kts | 310° |
| 2026-04-24 13:31 | -8.43429 | -50.25976 | 38005 ft | 311 kts | 310° |
| 2026-04-24 13:32 | -8.40743 | -50.29406 | 38001 ft | 311 kts | 310° |
| 2026-04-24 13:32 | -8.38055 | -50.32834 | 38005 ft | 311 kts | 310° |
| 2026-04-24 13:33 | -8.35371 | -50.36257 | 38005 ft | 311 kts | 310° |
| 2026-04-24 13:33 | -8.32685 | -50.39684 | 38005 ft | 311 kts | 310° |
| 2026-04-24 13:34 | -8.29997 | -50.43111 | 38006 ft | 311 kts | 310° |
| 2026-04-24 13:34 | -8.27300 | -50.46547 | 38007 ft | 312 kts | 310° |
| 2026-04-24 13:35 | -8.24601 | -50.49987 | 38010 ft | 313 kts | 310° |
| 2026-04-24 13:35 | -8.21899 | -50.53430 | 38007 ft | 313 kts | 310° |
| 2026-04-24 13:36 | -8.19204 | -50.56862 | 38005 ft | 313 kts | 311° |
| 2026-04-24 13:36 | -8.16497 | -50.60308 | 38008 ft | 313 kts | 310° |
| 2026-04-24 13:37 | -8.13788 | -50.63758 | 38012 ft | 314 kts | 310° |
| 2026-04-24 13:37 | -8.11142 | -50.67130 | 38003 ft | 294 kts | 311° |
| 2026-04-24 13:38 | -8.09903 | -50.68708 | 38006 ft | 280 kts | 311° |
| 2026-04-24 13:38 | -8.08730 | -50.70197 | 37998 ft | 267 kts | 311° |
| 2026-04-24 13:38 | -8.07600 | -50.71637 | 37998 ft | 255 kts | 311° |
| 2026-04-24 13:38 | -8.06520 | -50.73009 | 37993 ft | 244 kts | 311° |
| 2026-04-24 13:39 | -8.05491 | -50.74317 | 37997 ft | 232 kts | 311° |
| 2026-04-24 13:39 | -8.04512 | -50.75566 | 37992 ft | 221 kts | 311° |
| 2026-04-24 13:39 | -8.03885 | -50.76359 | 37985 ft | 219 kts | 312° |
| 2026-04-24 13:39 | -8.02905 | -50.77604 | 38007 ft | 234 kts | 311° |
| 2026-04-24 13:40 | -8.01858 | -50.78930 | 38020 ft | 249 kts | 311° |
| 2026-04-24 13:40 | -8.00368 | -50.80824 | 38040 ft | 270 kts | 311° |
| 2026-04-24 13:40 | -7.99577 | -50.81834 | 38041 ft | 280 kts | 311° |
| 2026-04-24 13:40 | -7.98372 | -50.83363 | 38048 ft | 295 kts | 311° |
| 2026-04-24 13:41 | -7.97067 | -50.85023 | 38049 ft | 309 kts | 311° |
| 2026-04-24 13:41 | -7.95698 | -50.86764 | 38046 ft | 324 kts | 310° |
| 2026-04-24 13:41 | -7.94270 | -50.88578 | 38047 ft | 337 kts | 310° |
| 2026-04-24 13:41 | -7.92787 | -50.90465 | 38043 ft | 350 kts | 310° |
| 2026-04-24 13:42 | -7.91248 | -50.92418 | 38043 ft | 362 kts | 310° |
| 2026-04-24 13:42 | -7.89657 | -50.94439 | 38039 ft | 373 kts | 310° |
| 2026-04-24 13:42 | -7.88020 | -50.96520 | 38035 ft | 384 kts | 310° |
| 2026-04-24 13:42 | -7.86339 | -50.98655 | 38041 ft | 393 kts | 310° |
| 2026-04-24 13:43 | -7.82868 | -51.03063 | 38031 ft | 410 kts | 310° |
| 2026-04-24 13:43 | -7.79334 | -51.07548 | 38028 ft | 419 kts | 310° |
| 2026-04-24 13:44 | -7.75746 | -51.12102 | 38031 ft | 416 kts | 310° |
| 2026-04-24 13:44 | -7.72156 | -51.16655 | 38025 ft | 414 kts | 310° |
| 2026-04-24 13:45 | -7.68578 | -51.21194 | 38030 ft | 413 kts | 310° |
| 2026-04-24 13:45 | -7.65047 | -51.25669 | 38028 ft | 411 kts | 310° |
| 2026-04-24 13:46 | -7.61444 | -51.30070 | 38025 ft | 408 kts | 315° |
| 2026-04-24 13:46 | -7.57662 | -51.34172 | 38022 ft | 408 kts | 314° |
| 2026-04-24 13:47 | -7.54046 | -51.38126 | 38025 ft | 407 kts | 314° |
| 2026-04-24 13:47 | -7.50198 | -51.42305 | 38022 ft | 407 kts | 314° |
| 2026-04-24 13:48 | -7.46359 | -51.46488 | 38021 ft | 406 kts | 314° |
| 2026-04-24 13:48 | -7.42536 | -51.50647 | 38019 ft | 405 kts | 314° |
| 2026-04-24 13:49 | -7.40315 | -51.53062 | 38021 ft | 405 kts | 314° |
| 2026-04-24 13:50 | -7.38607 | -51.54922 | 38020 ft | 405 kts | 314° |
| 2026-04-24 13:50 | -7.34773 | -51.59090 | 38023 ft | 404 kts | 314° |
| 2026-04-24 13:51 | -7.30948 | -51.63248 | 38020 ft | 404 kts | 314° |
| 2026-04-24 13:51 | -7.27132 | -51.67398 | 38017 ft | 404 kts | 314° |
| 2026-04-24 13:52 | -7.23314 | -51.71546 | 38017 ft | 404 kts | 314° |
| 2026-04-24 13:52 | -7.19497 | -51.75691 | 38021 ft | 404 kts | 314° |
| 2026-04-24 13:53 | -7.15678 | -51.79841 | 38019 ft | 403 kts | 315° |
| 2026-04-24 13:53 | -7.11863 | -51.83983 | 38021 ft | 403 kts | 315° |
| 2026-04-24 13:54 | -7.08047 | -51.88125 | 38021 ft | 403 kts | 315° |
| 2026-04-24 13:54 | -7.04227 | -51.92270 | 38023 ft | 404 kts | 315° |
| 2026-04-24 13:55 | -7.00409 | -51.96414 | 38024 ft | 403 kts | 315° |
| 2026-04-24 13:55 | -6.96598 | -52.00547 | 38026 ft | 403 kts | 315° |
| 2026-04-24 13:56 | -6.92773 | -52.04694 | 38026 ft | 404 kts | 315° |
| 2026-04-24 13:56 | -6.88955 | -52.08834 | 38024 ft | 403 kts | 315° |
| 2026-04-24 13:57 | -6.85138 | -52.12972 | 38028 ft | 404 kts | 315° |
| 2026-04-24 13:57 | -6.81321 | -52.17107 | 38025 ft | 404 kts | 315° |
| 2026-04-24 13:58 | -6.77499 | -52.21247 | 38027 ft | 404 kts | 315° |
| 2026-04-24 13:58 | -6.73675 | -52.25389 | 38027 ft | 404 kts | 315° |
| 2026-04-24 13:59 | -6.69855 | -52.29523 | 38029 ft | 404 kts | 315° |
| 2026-04-24 13:59 | -6.66032 | -52.33664 | 38027 ft | 404 kts | 315° |
| 2026-04-24 14:00 | -6.62199 | -52.37812 | 38030 ft | 405 kts | 315° |
| 2026-04-24 14:00 | -6.58391 | -52.41931 | 38026 ft | 405 kts | 315° |
| 2026-04-24 14:01 | -6.54555 | -52.46081 | 38029 ft | 405 kts | 315° |
| 2026-04-24 14:01 | -6.50720 | -52.50228 | 38032 ft | 405 kts | 315° |
| 2026-04-24 14:02 | -6.46882 | -52.54377 | 38023 ft | 405 kts | 315° |
| 2026-04-24 14:02 | -6.43046 | -52.58524 | 38026 ft | 405 kts | 315° |
| 2026-04-24 14:03 | -6.39209 | -52.62671 | 38019 ft | 405 kts | 315° |
| 2026-04-24 14:03 | -6.35371 | -52.66818 | 38018 ft | 405 kts | 315° |
| 2026-04-24 14:04 | -6.31468 | -52.70893 | 38020 ft | 404 kts | 317° |
| 2026-04-24 14:04 | -6.27505 | -52.74910 | 38020 ft | 405 kts | 317° |
| 2026-04-24 14:05 | -6.23628 | -52.78842 | 38022 ft | 405 kts | 317° |
| 2026-04-24 14:05 | -6.19753 | -52.82766 | 38022 ft | 405 kts | 317° |
| 2026-04-24 14:06 | -6.15810 | -52.86763 | 38023 ft | 405 kts | 317° |
| 2026-04-24 14:06 | -6.11814 | -52.90808 | 38024 ft | 405 kts | 317° |
| 2026-04-24 14:07 | -6.07840 | -52.94834 | 38026 ft | 405 kts | 317° |
| 2026-04-24 14:07 | -6.03867 | -52.98856 | 38027 ft | 406 kts | 317° |
| 2026-04-24 14:08 | -5.99916 | -53.02855 | 38030 ft | 406 kts | 317° |
| 2026-04-24 14:08 | -5.95913 | -53.06906 | 38026 ft | 406 kts | 317° |
| 2026-04-24 14:09 | -5.91958 | -53.10908 | 38025 ft | 406 kts | 317° |
| 2026-04-24 14:09 | -5.87976 | -53.14935 | 38026 ft | 406 kts | 317° |
| 2026-04-24 14:10 | -5.83993 | -53.18964 | 38031 ft | 406 kts | 317° |
| 2026-04-24 14:10 | -5.80007 | -53.22994 | 38029 ft | 407 kts | 317° |
| 2026-04-24 14:11 | -5.76019 | -53.27025 | 38035 ft | 407 kts | 317° |
| 2026-04-24 14:12 | -5.70028 | -53.33080 | 38031 ft | 407 kts | 317° |
| 2026-04-24 14:12 | -5.66031 | -53.37117 | 38030 ft | 407 kts | 317° |
| 2026-04-24 14:13 | -5.62039 | -53.41149 | 38032 ft | 407 kts | 317° |
| 2026-04-24 14:13 | -5.58044 | -53.45186 | 38033 ft | 407 kts | 317° |
| 2026-04-24 14:14 | -5.54051 | -53.49217 | 38030 ft | 407 kts | 317° |
| 2026-04-24 14:14 | -5.48060 | -53.55265 | 38034 ft | 407 kts | 317° |
| 2026-04-24 14:15 | -5.44065 | -53.59296 | 38032 ft | 407 kts | 317° |
| 2026-04-24 14:15 | -5.40069 | -53.63328 | 38034 ft | 407 kts | 317° |
| 2026-04-24 14:16 | -5.36071 | -53.67362 | 38036 ft | 408 kts | 317° |
| 2026-04-24 14:17 | -5.30070 | -53.73414 | 38033 ft | 408 kts | 317° |
| 2026-04-24 14:17 | -5.24062 | -53.79471 | 38029 ft | 408 kts | 317° |
| 2026-04-24 14:18 | -5.20082 | -53.83484 | 38028 ft | 409 kts | 317° |
| 2026-04-24 14:18 | -5.16066 | -53.87532 | 38033 ft | 409 kts | 317° |
| 2026-04-24 14:19 | -5.12052 | -53.91576 | 38033 ft | 409 kts | 317° |
| 2026-04-24 14:19 | -5.08032 | -53.95626 | 38029 ft | 410 kts | 317° |
| 2026-04-24 14:20 | -5.04018 | -53.99669 | 38032 ft | 410 kts | 317° |
| 2026-04-24 14:20 | -4.99984 | -54.03733 | 38029 ft | 410 kts | 317° |
| 2026-04-24 14:21 | -4.95912 | -54.07723 | 38025 ft | 409 kts | 323° |
| 2026-04-24 14:21 | -4.91121 | -54.10731 | 38025 ft | 405 kts | 335° |
| 2026-04-24 14:22 | -4.86142 | -54.13383 | 38031 ft | 405 kts | 335° |
| 2026-04-24 14:23 | -4.78659 | -54.17360 | 38028 ft | 406 kts | 335° |
| 2026-04-24 14:23 | -4.73674 | -54.20011 | 38031 ft | 406 kts | 335° |
| 2026-04-24 14:24 | -4.68685 | -54.22662 | 38030 ft | 406 kts | 335° |
| 2026-04-24 14:24 | -4.63698 | -54.25312 | 38028 ft | 406 kts | 335° |
| 2026-04-24 14:25 | -4.59553 | -54.27514 | 38029 ft | 406 kts | 335° |
| 2026-04-24 14:25 | -4.53741 | -54.30601 | 38034 ft | 406 kts | 335° |
| 2026-04-24 14:26 | -4.48729 | -54.33264 | 38024 ft | 406 kts | 335° |
| 2026-04-24 14:26 | -4.43740 | -54.35913 | 38025 ft | 406 kts | 335° |
| 2026-04-24 14:27 | -4.38786 | -54.38545 | 38032 ft | 405 kts | 335° |
| 2026-04-24 14:27 | -4.33803 | -54.41189 | 38030 ft | 405 kts | 335° |
| 2026-04-24 14:28 | -4.28824 | -54.43831 | 38028 ft | 405 kts | 335° |
| 2026-04-24 14:28 | -4.23846 | -54.46475 | 38030 ft | 405 kts | 335° |
| 2026-04-24 14:29 | -4.19678 | -54.48685 | 38031 ft | 404 kts | 335° |
| 2026-04-24 14:29 | -4.13905 | -54.51749 | 38033 ft | 404 kts | 335° |
| 2026-04-24 14:30 | -4.09772 | -54.53941 | 38033 ft | 404 kts | 335° |
| 2026-04-24 14:30 | -4.04803 | -54.56578 | 38029 ft | 405 kts | 335° |
| 2026-04-24 14:31 | -3.99823 | -54.59220 | 38033 ft | 405 kts | 335° |
| 2026-04-24 14:31 | -3.94848 | -54.61858 | 38029 ft | 405 kts | 335° |
| 2026-04-24 14:32 | -3.89864 | -54.64500 | 38025 ft | 405 kts | 335° |
| 2026-04-24 14:32 | -3.84879 | -54.67143 | 38033 ft | 406 kts | 335° |
| 2026-04-24 14:33 | -3.79890 | -54.69787 | 38027 ft | 406 kts | 335° |
| 2026-04-24 14:33 | -3.74897 | -54.72435 | 38030 ft | 406 kts | 335° |
| 2026-04-24 14:34 | -3.69900 | -54.75083 | 38032 ft | 407 kts | 335° |
| 2026-04-24 14:34 | -3.64888 | -54.77737 | 37434 ft | 417 kts | 335° |
| 2026-04-24 14:34 | -3.62315 | -54.79098 | 36573 ft | 419 kts | 335° |
| 2026-04-24 14:35 | -3.59736 | -54.80469 | 35705 ft | 421 kts | 335° |
| 2026-04-24 14:35 | -3.57143 | -54.81843 | 34837 ft | 422 kts | 335° |
| 2026-04-24 14:35 | -3.54539 | -54.83220 | 33956 ft | 424 kts | 335° |
| 2026-04-24 14:35 | -3.51935 | -54.84601 | 33047 ft | 422 kts | 335° |
| 2026-04-24 14:36 | -3.49348 | -54.85972 | 32177 ft | 420 kts | 335° |
| 2026-04-24 14:36 | -3.46797 | -54.87324 | 31320 ft | 418 kts | 335° |
| 2026-04-24 14:36 | -3.44226 | -54.88683 | 30455 ft | 417 kts | 335° |
| 2026-04-24 14:36 | -3.41663 | -54.90041 | 29551 ft | 416 kts | 335° |
| 2026-04-24 14:37 | -3.39155 | -54.91370 | 28707 ft | 413 kts | 335° |
| 2026-04-24 14:37 | -3.36624 | -54.92711 | 27858 ft | 410 kts | 335° |
| 2026-04-24 14:37 | -3.34149 | -54.94021 | 27043 ft | 407 kts | 335° |
| 2026-04-24 14:37 | -3.31650 | -54.95342 | 26207 ft | 406 kts | 335° |
| 2026-04-24 14:38 | -3.29162 | -54.96662 | 25370 ft | 404 kts | 334° |
| 2026-04-24 14:38 | -3.26685 | -54.97970 | 24544 ft | 404 kts | 334° |
| 2026-04-24 14:38 | -3.24111 | -54.99037 | 23698 ft | 399 kts | 349° |
| 2026-04-24 14:38 | -3.21380 | -54.99299 | 22843 ft | 392 kts | 1° |
| 2026-04-24 14:39 | -3.18670 | -54.99303 | 22037 ft | 387 kts | 3° |
| 2026-04-24 14:39 | -3.15995 | -54.99230 | 21243 ft | 382 kts | 4° |
| 2026-04-24 14:39 | -3.13345 | -54.99183 | 20456 ft | 379 kts | 2° |
| 2026-04-24 14:39 | -3.10717 | -54.99174 | 19679 ft | 377 kts | 2° |
| 2026-04-24 14:40 | -3.08101 | -54.99160 | 18900 ft | 374 kts | 2° |
| 2026-04-24 14:40 | -3.05506 | -54.99132 | 18100 ft | 372 kts | 2° |
| 2026-04-24 14:40 | -3.02931 | -54.99102 | 17321 ft | 367 kts | 2° |
| 2026-04-24 14:40 | -3.00392 | -54.99080 | 16566 ft | 363 kts | 2° |
| 2026-04-24 14:41 | -2.97880 | -54.99056 | 15820 ft | 359 kts | 2° |
| 2026-04-24 14:41 | -2.95391 | -54.99035 | 15083 ft | 356 kts | 2° |
| 2026-04-24 14:41 | -2.92917 | -54.99008 | 14346 ft | 354 kts | 2° |
| 2026-04-24 14:41 | -2.90460 | -54.98987 | 13595 ft | 353 kts | 2° |
| 2026-04-24 14:42 | -2.88035 | -54.98962 | 12861 ft | 340 kts | 1° |
| 2026-04-24 14:42 | -2.85738 | -54.98944 | 12180 ft | 321 kts | 2° |
| 2026-04-24 14:42 | -2.83555 | -54.98922 | 11529 ft | 307 kts | 1° |
| 2026-04-24 14:42 | -2.81462 | -54.98901 | 10910 ft | 295 kts | 2° |
| 2026-04-24 14:43 | -2.79446 | -54.98883 | 10306 ft | 285 kts | 1° |
| 2026-04-24 14:43 | -2.77488 | -54.98862 | 9709 ft | 279 kts | 1° |
| 2026-04-24 14:43 | -2.75571 | -54.98847 | 9130 ft | 272 kts | 1° |
| 2026-04-24 14:43 | -2.73696 | -54.98827 | 8573 ft | 267 kts | 2° |
| 2026-04-24 14:44 | -2.71876 | -54.98811 | 8031 ft | 263 kts | 2° |
| 2026-04-24 14:44 | -2.70037 | -54.98790 | 7487 ft | 259 kts | 2° |
| 2026-04-24 14:44 | -2.68242 | -54.98778 | 6946 ft | 257 kts | 2° |
| 2026-04-24 14:44 | -2.66454 | -54.98757 | 6425 ft | 257 kts | 2° |
| 2026-04-24 14:45 | -2.64674 | -54.98741 | 5873 ft | 256 kts | 3° |
| 2026-04-24 14:45 | -2.62893 | -54.98726 | 5344 ft | 256 kts | 2° |
| 2026-04-24 14:45 | -2.61116 | -54.98706 | 4815 ft | 255 kts | 2° |
| 2026-04-24 14:45 | -2.59345 | -54.98694 | 4277 ft | 254 kts | 3° |
| 2026-04-24 14:46 | -2.57582 | -54.98673 | 3750 ft | 253 kts | 2° |
| 2026-04-24 14:46 | -2.55823 | -54.98660 | 3231 ft | 252 kts | 2° |
| 2026-04-24 14:46 | -2.54121 | -54.98501 | 3022 ft | 235 kts | 14° |
| 2026-04-24 14:46 | -2.52659 | -54.98206 | 2989 ft | 193 kts | 12° |
| 2026-04-24 14:47 | -2.51435 | -54.97981 | 2990 ft | 172 kts | 13° |
| 2026-04-24 14:47 | -2.50315 | -54.97773 | 2983 ft | 153 kts | 13° |
| 2026-04-24 14:47 | -2.49345 | -54.97588 | 2991 ft | 137 kts | 13° |
| 2026-04-24 14:47 | -2.48408 | -54.97409 | 2988 ft | 138 kts | 14° |
| 2026-04-24 14:48 | -2.47451 | -54.97231 | 2991 ft | 142 kts | 13° |
| 2026-04-24 14:48 | -2.46481 | -54.97028 | 2987 ft | 143 kts | 19° |
| 2026-04-24 14:48 | -2.45627 | -54.96518 | 2904 ft | 147 kts | 43° |
| 2026-04-24 14:48 | -2.45012 | -54.95698 | 2779 ft | 148 kts | 66° |
| 2026-04-24 14:49 | -2.44761 | -54.94723 | 2654 ft | 143 kts | 81° |
| 2026-04-24 14:49 | -2.44610 | -54.93777 | 2522 ft | 134 kts | 79° |
| 2026-04-24 14:49 | -2.44468 | -54.92875 | 2402 ft | 129 kts | 78° |
| 2026-04-24 14:49 | -2.44327 | -54.92010 | 2285 ft | 123 kts | 79° |
| 2026-04-24 14:50 | -2.44189 | -54.91171 | 2176 ft | 123 kts | 78° |
| 2026-04-24 14:50 | -2.44051 | -54.90318 | 2071 ft | 125 kts | 79° |
| 2026-04-24 14:50 | -2.43911 | -54.89453 | 1962 ft | 126 kts | 79° |
| 2026-04-24 14:50 | -2.43767 | -54.88585 | 1891 ft | 125 kts | 80° |
| 2026-04-24 14:51 | -2.43632 | -54.87740 | 1862 ft | 122 kts | 77° |
| 2026-04-24 14:51 | -2.43497 | -54.86917 | 1839 ft | 118 kts | 79° |
| 2026-04-24 14:51 | -2.43363 | -54.86125 | 1861 ft | 115 kts | 80° |
| 2026-04-24 14:51 | -2.43232 | -54.85331 | 1815 ft | 116 kts | 79° |
| 2026-04-24 14:52 | -2.43100 | -54.84518 | 1588 ft | 125 kts | 79° |
| 2026-04-24 14:52 | -2.42949 | -54.83626 | 1201 ft | 133 kts | 80° |
| 2026-04-24 14:52 | -2.42801 | -54.82706 | 914 ft | 129 kts | 79° |
| 2026-04-24 14:52 | -2.42667 | -54.81925 | 685 ft | 106 kts | 80° |
| 2026-04-24 14:53 | -2.42555 | -54.81205 | 524 ft | 105 kts | 81° |
| 2026-04-24 14:53 | -2.42430 | -54.80479 | 299 ft | 108 kts | 81° |
| 2026-04-24 14:53 | -2.42320 | -54.79780 | 202 ft | 90 kts | 81° |
| 2026-04-24 14:53 | -2.42230 | -54.79244 | 203 ft | 66 kts | 80° |
| 2026-04-24 14:54 | -2.42177 | -54.78924 | 202 ft | 33 kts | 83° |
| 2026-04-24 14:54 | -2.42172 | -54.78775 | 202 ft | 5 kts | 109° |
| 2026-04-24 14:54 | -2.42172 | -54.78773 | 202 ft | 1 kts | 111° |
| 2026-04-24 14:54 | -2.42197 | -54.78740 | 201 ft | 8 kts | 134° |
| 2026-04-24 14:55 | -2.42220 | -54.78717 | 200 ft | 0 kts | 137° |
| 2026-04-24 14:55 | -2.42241 | -54.78698 | 200 ft | 9 kts | 139° |
| 2026-04-24 14:55 | -2.42295 | -54.78666 | 200 ft | 8 kts | 197° |
| 2026-04-24 14:55 | -2.42305 | -54.78688 | 204 ft | 7 kts | 259° |
| 2026-04-24 14:56 | -2.42317 | -54.78769 | 206 ft | 16 kts | 261° |
| 2026-04-24 14:56 | -2.42347 | -54.78820 | 199 ft | 9 kts | 184° |
| 2026-04-24 14:56 | -2.42416 | -54.78815 | 200 ft | 10 kts | 214° |
| 2026-04-24 14:56 | -2.42434 | -54.78869 | 209 ft | 6 kts | 228° |
| 2026-04-24 14:57 | -2.42469 | -54.78870 | 200 ft | 3 kts | 159° |
| 2026-04-24 14:57 | -2.42474 | -54.78859 | 210 ft | 0 kts | 84° |
| 2026-04-24 14:57 | -2.42474 | -54.78857 | 208 ft | 0 kts | 86° |